Time;durP1;ratioP1;P1;durP2;ratioP2;P2;SDS_P1;SDS_P2;PMS_P1;PMS_P2;Temp;Humidity;BMP_temperature;BMP_pressure;BME280_temperature;BME280_humidity;BME280_pressure;Samples;Min_cycle;Max_cycle;Signal;HPM_P1;HPM_P2
2023/06/25 00:00:44;;;;;;;14.60;8.90;;;;;;;;;;109832;1268;22029;-83
2023/06/25 00:03:40;;;;;;;14.20;8.70;;;;;;;;;;109865;1286;23020;-83
2023/06/25 00:06:07;;;;;;;14.50;8.20;;;;;;;;;;109883;1286;22929;-82
2023/06/25 00:08:35;;;;;;;16.20;8.00;;;;;;;;;;109861;1286;21695;-83
2023/06/25 00:11:12;;;;;;;13.20;7.60;;;;;;;;;;109853;1267;22782;-83
2023/06/25 00:13:59;;;;;;;;;;;;;;;;;;;;;
2023/06/25 00:16:46;;;;;;;14.60;7.20;;;;;;;;;;109851;1286;23242;-83
2023/06/25 00:26:45;;;;;;;12.50;7.20;;;;;;;;;;109656;1289;22883;-83
2023/06/25 00:29:13;;;;;;;14.20;7.50;;;;;;;;;;109552;1289;22153;-84
2023/06/25 00:31:41;;;;;;;14.70;8.10;;;;;;;;;;109591;1270;22139;-83
2023/06/25 00:34:10;;;;;;;13.50;8.20;;;;;;;;;;109632;1289;22077;-83
2023/06/25 00:36:41;;;;;;;18.60;7.70;;;;;;;;;;109588;1286;21810;-83
2023/06/25 00:39:09;;;;;;;12.40;6.80;;;;;;;;;;109798;1286;22367;-83
2023/06/25 00:41:39;;;;;;;12.50;8.10;;;;;;;;;;109893;1266;22167;-83
2023/06/25 00:44:08;;;;;;;16.30;7.90;;;;;;;;;;109744;1287;22164;-82
2023/06/25 00:46:36;;;;;;;12.80;7.50;;;;;;;;;;109606;1283;22142;-82
2023/06/25 00:49:08;;;;;;;12.50;8.10;;;;;;;;;;109767;1287;22138;-83
2023/06/25 00:51:37;;;;;;;13.60;8.00;;;;;;;;;;109888;1264;22146;-83
2023/06/25 00:54:07;;;;;;;12.80;8.00;;;;;;;;;;109775;1286;22246;-83
2023/06/25 00:56:37;;;;;;;13.70;8.30;;;;;;;;;;109782;1286;22928;-83
2023/06/25 00:59:06;;;;;;;15.40;9.00;;;;;;;;;;109884;1283;22354;-83
2023/06/25 01:01:58;;;;;;;15.00;8.20;;;;;;;;;;110200;1263;22915;-82
2023/06/25 01:04:28;;;;;;;14.10;8.80;;;;;;;;;;110018;1282;22113;-83
2023/06/25 01:07:01;;;;;;;16.00;8.50;;;;;;;;;;110012;1279;22108;-83
2023/06/25 01:09:31;;;;;;;15.50;8.90;;;;;;;;;;110071;1282;22094;-83
2023/06/25 01:12:02;;;;;;;22.70;12.80;;;;;;;;;;110052;1263;22111;-83
2023/06/25 01:14:33;;;;;;;20.20;10.50;;;;;;;;;;110074;1282;22882;-83
2023/06/25 01:17:02;;;;;;;19.20;10.00;;;;;;;;;;110013;1279;22911;-83
2023/06/25 01:19:32;;;;;;;16.20;9.30;;;;;;;;;;110064;1282;22277;-83
2023/06/25 01:22:03;;;;;;;16.30;9.50;;;;;;;;;;110191;1260;22852;-83
2023/06/25 01:24:36;;;;;;;15.30;8.70;;;;;;;;;;110057;1282;22826;-83
2023/06/25 01:27:05;;;;;;;14.20;8.80;;;;;;;;;;110005;1282;22090;-83
2023/06/25 01:29:35;;;;;;;14.80;8.10;;;;;;;;;;109993;1282;22109;-83
2023/06/25 01:32:06;;;;;;;17.50;8.40;;;;;;;;;;110214;1260;22122;-83
2023/06/25 01:34:35;;;;;;;15.30;7.80;;;;;;;;;;110069;1279;22759;-84
2023/06/25 01:37:06;;;;;;;15.40;8.70;;;;;;;;;;110011;1282;22829;-83
2023/06/25 01:39:35;;;;;;;15.70;8.80;;;;;;;;;;110067;1278;22111;-84
2023/06/25 01:42:14;;;;;;;16.50;8.80;;;;;;;;;;110190;1263;22766;-83
2023/06/25 01:51:37;;;;;;;14.50;8.30;;;;;;;;;;103840;1305;546192;-84
2023/06/25 01:54:04;;;;;;;14.30;7.70;;;;;;;;;;106374;1287;24759;-86
2023/06/25 01:56:31;;;;;;;14.50;8.40;;;;;;;;;;106055;1287;22564;-84
2023/06/25 01:58:58;;;;;;;20.20;8.70;;;;;;;;;;106094;1287;22539;-86
2023/06/25 02:01:24;;;;;;;16.90;8.50;;;;;;;;;;106159;1269;24475;-89
2023/06/25 02:03:51;;;;;;;16.70;8.50;;;;;;;;;;106086;1287;22534;-84
2023/06/25 02:06:18;;;;;;;15.70;8.40;;;;;;;;;;104115;1285;3168886;-90
2023/06/25 02:08:45;;;;;;;14.80;9.30;;;;;;;;;;106467;1285;25588;-86
2023/06/25 02:11:12;;;;;;;15.40;9.00;;;;;;;;;;106442;1285;24295;-88
2023/06/25 02:13:39;;;;;;;15.40;8.50;;;;;;;;;;106534;1281;22537;-86
2023/06/25 02:16:09;;;;;;;15.20;8.30;;;;;;;;;;106917;1279;22523;-86
2023/06/25 02:18:36;;;;;;;14.10;8.30;;;;;;;;;;106836;1278;22547;-91
2023/06/25 02:21:03;;;;;;;13.10;7.90;;;;;;;;;;106919;1257;24190;-87
2023/06/25 02:23:33;;;;;;;13.50;8.60;;;;;;;;;;106819;1278;24436;-84
2023/06/25 02:26:00;;;;;;;16.10;8.30;;;;;;;;;;106892;1278;24346;-86
2023/06/25 02:28:32;;;;;;;15.90;8.80;;;;;;;;;;106857;1278;25217;-87
2023/06/25 02:31:04;;;;;;;15.00;8.80;;;;;;;;;;106890;1278;25322;-84
2023/06/25 02:33:32;;;;;;;15.30;8.40;;;;;;;;;;106880;1266;22556;-88
2023/06/25 02:36:01;;;;;;;16.00;9.00;;;;;;;;;;106788;1278;22482;-87
2023/06/25 02:38:28;;;;;;;20.20;8.90;;;;;;;;;;106903;1278;22660;-86
2023/06/25 02:40:57;;;;;;;16.90;7.90;;;;;;;;;;107160;1272;23870;-88
2023/06/25 02:43:30;;;;;;;14.80;8.50;;;;;;;;;;107220;1256;25399;-88
2023/06/25 02:45:57;;;;;;;15.00;7.90;;;;;;;;;;106983;1275;24249;-84
2023/06/25 02:48:29;;;;;;;16.10;8.00;;;;;;;;;;107152;1274;22520;-89
2023/06/25 02:50:58;;;;;;;15.90;9.40;;;;;;;;;;107209;1275;24196;-91
2023/06/25 02:53:27;;;;;;;14.60;9.10;;;;;;;;;;107093;1257;22647;-89
2023/06/25 02:55:54;;;;;;;16.20;9.60;;;;;;;;;;107083;1274;23902;-86
2023/06/25 02:58:21;;;;;;;16.40;9.00;;;;;;;;;;107008;1275;25258;-85
2023/06/25 03:00:50;;;;;;;16.90;9.00;;;;;;;;;;107125;1275;23342;-89
2023/06/25 03:03:37;;;;;;;17.50;8.90;;;;;;;;;;107114;1256;22517;-87
2023/06/25 03:06:05;;;;;;;17.10;8.80;;;;;;;;;;107063;1274;25517;-88
2023/06/25 03:08:35;;;;;;;16.50;8.60;;;;;;;;;;107113;1275;23276;-89
2023/06/25 03:11:02;;;;;;;17.00;7.90;;;;;;;;;;107139;1275;22573;-86
2023/06/25 03:13:31;;;;;;;16.20;8.20;;;;;;;;;;106965;1259;23230;-89
2023/06/25 03:16:03;;;;;;;14.60;8.90;;;;;;;;;;106955;1275;25347;-84
2023/06/25 03:18:30;;;;;;;14.60;8.90;;;;;;;;;;107137;1275;22760;-85
2023/06/25 03:21:00;;;;;;;16.30;9.10;;;;;;;;;;107098;1275;24269;-87
2023/06/25 03:23:29;;;;;;;17.10;9.40;;;;;;;;;;107115;1256;23346;-89
2023/06/25 03:25:56;;;;;;;15.10;9.20;;;;;;;;;;106951;1275;24327;-90
2023/06/25 03:28:32;;;;;;;16.90;8.50;;;;;;;;;;107120;1275;22531;-90
2023/06/25 03:30:58;;;;;;;18.80;8.90;;;;;;;;;;107034;1275;22537;-89
2023/06/25 03:33:26;;;;;;;16.50;9.20;;;;;;;;;;107004;1275;22936;-89
2023/06/25 03:35:52;;;;;;;15.90;9.10;;;;;;;;;;107106;1275;25473;-85
2023/06/25 03:38:19;;;;;;;16.10;9.20;;;;;;;;;;107020;1275;25409;-86
2023/06/25 03:40:49;;;;;;;18.50;10.00;;;;;;;;;;106947;1275;22748;-89
2023/06/25 03:43:19;;;;;;;17.60;10.10;;;;;;;;;;107226;1259;24257;-88
2023/06/25 03:45:52;;;;;;;16.10;9.20;;;;;;;;;;107252;1275;22621;-89
2023/06/25 03:48:22;;;;;;;16.40;8.60;;;;;;;;;;107124;1275;22990;-84
2023/06/25 03:50:52;;;;;;;14.30;7.90;;;;;;;;;;107201;1275;24355;-91
2023/06/25 03:53:29;;;;;;;17.10;8.30;;;;;;;;;;107113;1256;22645;-86
2023/06/25 03:55:58;;;;;;;16.70;8.40;;;;;;;;;;107022;1275;24311;-86
2023/06/25 03:58:48;;;;;;;16.50;8.30;;;;;;;;;;107190;1275;22634;-88
2023/06/25 04:01:21;;;;;;;16.40;9.20;;;;;;;;;;107119;1275;22557;-89
2023/06/25 04:03:48;;;;;;;16.60;9.10;;;;;;;;;;106953;1260;22641;-86
2023/06/25 04:06:18;;;;;;;17.50;10.90;;;;;;;;;;107000;1275;25364;-88
2023/06/25 04:08:44;;;;;;;15.20;10.00;;;;;;;;;;107095;1275;22559;-86
2023/06/25 04:11:12;;;;;;;17.90;10.40;;;;;;;;;;107205;1275;22527;-84
2023/06/25 04:13:40;;;;;;;16.90;9.70;;;;;;;;;;107091;1254;22523;-85
2023/06/25 04:16:10;;;;;;;16.90;9.80;;;;;;;;;;106977;1275;22499;-88
2023/06/25 04:18:44;;;;;;;15.90;9.70;;;;;;;;;;106987;1270;22543;-89
2023/06/25 04:21:10;;;;;;;14.70;9.00;;;;;;;;;;107233;1275;24241;-85
2023/06/25 04:23:43;;;;;;;18.00;10.00;;;;;;;;;;106996;1275;22577;-84
2023/06/25 04:26:10;;;;;;;14.30;9.40;;;;;;;;;;107066;1275;24192;-86
2023/06/25 04:28:37;;;;;;;14.90;9.30;;;;;;;;;;107086;1275;22557;-87
2023/06/25 04:31:16;;;;;;;;;;;;;;;;;;;;;
2023/06/25 04:33:46;;;;;;;15.20;9.20;;;;;;;;;;107245;1257;25319;-84
2023/06/25 04:36:20;;;;;;;15.30;8.70;;;;;;;;;;107217;1275;22518;-85
2023/06/25 04:38:53;;;;;;;14.40;8.40;;;;;;;;;;106994;1275;24025;-86
2023/06/25 04:41:22;;;;;;;16.40;8.10;;;;;;;;;;106999;1275;22490;-85
2023/06/25 04:43:52;;;;;;;16.00;7.90;;;;;;;;;;107087;1252;24190;-88
2023/06/25 04:46:19;;;;;;;16.50;8.10;;;;;;;;;;106979;1275;23000;-84
2023/06/25 04:48:48;;;;;;;16.10;8.40;;;;;;;;;;107166;1275;24169;-84
2023/06/25 04:51:35;;;;;;;14.40;7.90;;;;;;;;;;106985;1275;22553;-84
2023/06/25 04:54:04;;;;;;;14.50;7.60;;;;;;;;;;107233;1260;22537;-83
2023/06/25 04:56:34;;;;;;;15.30;7.70;;;;;;;;;;107003;1266;24216;-84
2023/06/25 04:59:01;;;;;;;14.60;7.20;;;;;;;;;;107105;1275;25229;-84
2023/06/25 05:01:33;;;;;;;12.20;7.30;;;;;;;;;;107002;1275;22645;-86
2023/06/25 05:04:00;;;;;;;11.00;6.40;;;;;;;;;;107026;1274;24514;-83
2023/06/25 05:06:26;;;;;;;11.10;5.60;;;;;;;;;;107213;1256;22567;-88
2023/06/25 05:08:53;;;;;;;12.60;5.20;;;;;;;;;;107234;1274;25265;-85
2023/06/25 05:11:20;;;;;;;10.80;5.50;;;;;;;;;;107053;1274;22525;-84
2023/06/25 05:13:58;;;;;;;11.00;5.60;;;;;;;;;;107171;1274;22510;-85
2023/06/25 05:16:25;;;;;;;10.30;5.80;;;;;;;;;;107051;1270;22523;-87
2023/06/25 05:18:58;;;;;;;11.20;6.10;;;;;;;;;;107025;1274;25975;-83
2023/06/25 05:21:27;;;;;;;10.30;5.90;;;;;;;;;;106987;1273;25466;-85
2023/06/25 05:24:08;;;;;;;11.20;5.90;;;;;;;;;;107173;1274;24192;-89
2023/06/25 05:26:34;;;;;;;10.40;5.80;;;;;;;;;;107191;1256;22522;-85
2023/06/25 05:29:09;;;;;;;11.10;5.70;;;;;;;;;;107172;1274;24212;-84
2023/06/25 05:31:36;;;;;;;11.10;5.90;;;;;;;;;;107022;1274;24169;-89
2023/06/25 05:34:06;;;;;;;11.00;5.90;;;;;;;;;;107223;1274;22528;-85
2023/06/25 05:36:48;;;;;;;;;;;;;;;;;;;;;
2023/06/25 05:39:15;;;;;;;9.20;5.50;;;;;;;;;;107186;1274;25335;-85
2023/06/25 05:41:44;;;;;;;10.30;6.30;;;;;;;;;;107188;1274;22844;-87
2023/06/25 05:44:13;;;;;;;10.50;5.90;;;;;;;;;;107165;1274;22528;-85
2023/06/25 05:46:43;;;;;;;11.20;6.60;;;;;;;;;;107197;1256;22522;-90
2023/06/25 05:49:11;;;;;;;10.00;5.80;;;;;;;;;;107040;1274;22562;-85
2023/06/25 05:51:38;;;;;;;9.90;6.20;;;;;;;;;;107349;1274;25396;-92
2023/06/25 05:54:14;;;;;;;9.80;6.40;;;;;;;;;;107188;1274;22511;-84
2023/06/25 05:56:41;;;;;;;11.60;6.20;;;;;;;;;;107210;1251;23880;-88
2023/06/25 05:59:13;;;;;;;10.00;6.10;;;;;;;;;;106955;1274;22518;-85
2023/06/25 06:01:48;;;;;;;11.00;6.20;;;;;;;;;;107237;1274;22659;-86
2023/06/25 06:04:20;;;;;;;11.60;6.10;;;;;;;;;;107152;1275;25312;-85
2023/06/25 06:06:47;;;;;;;10.10;5.50;;;;;;;;;;107130;1267;22517;-89
2023/06/25 06:09:14;;;;;;;9.90;5.80;;;;;;;;;;107142;1273;22520;-84
2023/06/25 06:11:41;;;;;;;10.00;5.60;;;;;;;;;;107166;1274;22542;-86
2023/06/25 06:14:13;;;;;;;11.10;5.50;;;;;;;;;;107170;1274;24504;-89
2023/06/25 06:16:40;;;;;;;10.00;6.10;;;;;;;;;;107133;1266;22653;-86
2023/06/25 06:19:31;;;;;;;9.90;5.40;;;;;;;;;;106964;1275;23397;-85
2023/06/25 06:21:57;;;;;;;11.00;5.60;;;;;;;;;;107028;1274;27442;-86
2023/06/25 06:24:27;;;;;;;10.90;5.50;;;;;;;;;;107004;1274;25068;-83
2023/06/25 06:27:05;;;;;;;10.00;5.40;;;;;;;;;;107176;1274;24394;-84
2023/06/25 06:29:55;;;;;;;8.80;4.80;;;;;;;;;;107196;1274;22523;-83
2023/06/25 06:32:25;;;;;;;7.50;4.10;;;;;;;;;;107240;1274;22569;-86
2023/06/25 06:34:52;;;;;;;6.10;3.20;;;;;;;;;;107148;1274;22527;-83
2023/06/25 06:37:19;;;;;;;7.30;3.70;;;;;;;;;;107191;1264;24224;-86
2023/06/25 06:39:46;;;;;;;7.00;3.50;;;;;;;;;;107165;1274;24187;-86
2023/06/25 06:42:12;;;;;;;7.20;3.50;;;;;;;;;;106956;1274;22524;-82
2023/06/25 06:44:40;;;;;;;7.30;3.60;;;;;;;;;;107177;1274;22736;-89
2023/06/25 06:47:07;;;;;;;8.50;3.60;;;;;;;;;;107170;1257;25175;-86
2023/06/25 06:49:36;;;;;;;7.80;3.40;;;;;;;;;;107034;1274;22534;-83
2023/06/25 06:52:03;;;;;;;7.70;3.70;;;;;;;;;;107050;1274;24269;-85
2023/06/25 06:54:30;;;;;;;9.30;3.70;;;;;;;;;;107187;1274;25370;-84
2023/06/25 06:56:57;;;;;;;8.50;4.20;;;;;;;;;;107172;1266;22524;-86
2023/06/25 06:59:24;;;;;;;8.30;4.10;;;;;;;;;;107221;1274;24186;-85
2023/06/25 07:01:53;;;;;;;8.30;4.00;;;;;;;;;;106955;1274;25274;-85
2023/06/25 07:04:20;;;;;;;8.30;4.30;;;;;;;;;;107018;1274;25587;-86
2023/06/25 07:06:46;;;;;;;7.80;3.70;;;;;;;;;;107144;1251;22558;-86
2023/06/25 07:09:13;;;;;;;8.30;3.90;;;;;;;;;;107318;1274;22517;-84
2023/06/25 07:11:40;;;;;;;6.50;3.70;;;;;;;;;;107209;1274;22484;-86
2023/06/25 07:14:12;;;;;;;9.80;4.20;;;;;;;;;;107152;1267;22529;-89
2023/06/25 07:16:41;;;;;;;8.00;3.90;;;;;;;;;;107024;1274;23926;-81
2023/06/25 07:19:08;;;;;;;7.20;4.00;;;;;;;;;;107180;1257;22521;-88
2023/06/25 07:21:37;;;;;;;6.90;3.40;;;;;;;;;;107228;1274;24004;-84
2023/06/25 07:24:04;;;;;;;8.50;4.10;;;;;;;;;;106969;1273;26477;-83
2023/06/25 07:26:30;;;;;;;7.70;4.30;;;;;;;;;;107206;1267;24222;-87
2023/06/25 07:28:57;;;;;;;7.80;4.00;;;;;;;;;;107268;1256;22563;-85
2023/06/25 07:31:24;;;;;;;8.10;4.40;;;;;;;;;;107234;1274;22540;-86
2023/06/25 07:33:57;;;;;;;10.70;4.60;;;;;;;;;;106993;1272;22760;-91
2023/06/25 07:36:23;;;;;;;8.60;4.80;;;;;;;;;;107298;1273;22504;-82
2023/06/25 07:38:50;;;;;;;7.90;4.20;;;;;;;;;;107250;1260;22572;-86
2023/06/25 07:41:17;;;;;;;8.30;4.50;;;;;;;;;;107005;1274;22537;-84
2023/06/25 07:43:44;;;;;;;7.60;4.10;;;;;;;;;;107216;1274;25223;-83
2023/06/25 07:46:11;;;;;;;8.00;4.60;;;;;;;;;;107146;1274;22518;-82
2023/06/25 07:48:38;;;;;;;7.50;4.40;;;;;;;;;;107169;1275;25406;-83
2023/06/25 07:51:05;;;;;;;7.90;4.20;;;;;;;;;;107156;1267;24196;-82
2023/06/25 07:53:31;;;;;;;8.70;4.70;;;;;;;;;;106944;1270;23089;-89
2023/06/25 07:55:58;;;;;;;8.80;4.40;;;;;;;;;;106996;1272;22536;-87
2023/06/25 07:58:25;;;;;;;8.20;4.50;;;;;;;;;;107232;1257;25343;-83
2023/06/25 08:00:52;;;;;;;8.10;4.20;;;;;;;;;;107159;1274;22491;-86
2023/06/25 08:03:18;;;;;;;7.30;3.80;;;;;;;;;;107275;1274;24187;-86
2023/06/25 08:05:45;;;;;;;8.10;4.30;;;;;;;;;;107239;1261;22520;-84
2023/06/25 08:08:12;;;;;;;7.00;3.70;;;;;;;;;;107169;1257;22529;-87
2023/06/25 08:10:39;;;;;;;6.90;3.80;;;;;;;;;;107146;1274;24186;-86
2023/06/25 08:13:06;;;;;;;8.90;4.10;;;;;;;;;;106931;1274;25433;-86
2023/06/25 08:15:33;;;;;;;8.10;4.10;;;;;;;;;;107147;1274;22527;-83
2023/06/25 08:18:00;;;;;;;7.50;4.10;;;;;;;;;;107334;1253;22645;-85
2023/06/25 08:20:27;;;;;;;8.10;4.50;;;;;;;;;;106987;1274;25297;-85
2023/06/25 08:22:53;;;;;;;8.90;4.20;;;;;;;;;;107189;1274;22550;-83
2023/06/25 08:25:21;;;;;;;9.40;4.40;;;;;;;;;;107033;1274;25176;-84
2023/06/25 08:27:48;;;;;;;8.30;3.90;;;;;;;;;;107000;1274;25230;-87
2023/06/25 08:30:15;;;;;;;9.30;4.10;;;;;;;;;;107207;1257;22524;-82
2023/06/25 08:32:50;;;;;;;7.80;4.50;;;;;;;;;;107174;1274;25497;-86
2023/06/25 08:35:17;;;;;;;10.20;4.70;;;;;;;;;;107243;1274;24260;-87
2023/06/25 08:37:44;;;;;;;9.40;5.20;;;;;;;;;;106964;1270;22525;-82
2023/06/25 08:40:11;;;;;;;8.40;4.60;;;;;;;;;;107239;1274;25330;-88
2023/06/25 08:42:39;;;;;;;8.90;4.70;;;;;;;;;;107186;1274;24193;-85
2023/06/25 08:45:07;;;;;;;9.40;5.10;;;;;;;;;;106984;1275;25532;-86
2023/06/25 08:47:37;;;;;;;8.90;4.70;;;;;;;;;;107179;1274;24023;-82
2023/06/25 08:50:04;;;;;;;10.00;4.70;;;;;;;;;;106963;1266;23339;-83
2023/06/25 08:52:31;;;;;;;10.30;4.60;;;;;;;;;;106978;1274;25466;-83
2023/06/25 08:54:59;;;;;;;11.60;5.60;;;;;;;;;;107162;1274;25427;-86
2023/06/25 08:57:26;;;;;;;10.30;4.50;;;;;;;;;;107259;1274;22646;-84
2023/06/25 08:59:52;;;;;;;8.50;4.70;;;;;;;;;;107029;1258;23322;-87
2023/06/25 09:02:19;;;;;;;9.40;4.90;;;;;;;;;;106922;1274;22541;-86
2023/06/25 09:04:46;;;;;;;9.00;4.70;;;;;;;;;;107181;1274;25491;-85
2023/06/25 09:07:15;;;;;;;10.40;4.70;;;;;;;;;;107227;1274;24200;-84
2023/06/25 09:09:43;;;;;;;9.30;4.40;;;;;;;;;;107209;1264;22520;-87
2023/06/25 09:12:10;;;;;;;8.70;4.80;;;;;;;;;;106972;1274;24040;-85
2023/06/25 09:14:40;;;;;;;9.40;4.50;;;;;;;;;;107010;1274;24266;-84
2023/06/25 09:17:07;;;;;;;8.70;4.00;;;;;;;;;;107205;1274;24351;-87
2023/06/25 09:19:34;;;;;;;8.10;3.80;;;;;;;;;;107201;1251;24201;-84
2023/06/25 09:22:03;;;;;;;7.40;3.40;;;;;;;;;;107247;1274;22764;-85
2023/06/25 09:24:30;;;;;;;9.60;4.20;;;;;;;;;;106963;1274;25240;-86
2023/06/25 09:27:02;;;;;;;8.30;4.40;;;;;;;;;;107177;1274;22532;-86
2023/06/25 09:29:35;;;;;;;8.80;4.60;;;;;;;;;;107263;1274;25353;-84
2023/06/25 09:32:12;;;;;;;9.50;4.80;;;;;;;;;;107053;1274;25220;-87
2023/06/25 09:34:42;;;;;;;9.30;4.60;;;;;;;;;;107247;1274;25255;-84
2023/06/25 09:37:08;;;;;;;9.90;5.00;;;;;;;;;;107215;1274;22770;-86
2023/06/25 09:39:52;;;;;;;8.80;4.30;;;;;;;;;;106923;1251;22497;-86
2023/06/25 09:42:19;;;;;;;9.80;4.40;;;;;;;;;;106974;1274;25402;-87
2023/06/25 09:44:50;;;;;;;9.60;4.70;;;;;;;;;;107182;1274;22527;-84
2023/06/25 09:47:20;;;;;;;8.90;4.20;;;;;;;;;;107009;1274;22524;-84
2023/06/25 09:49:50;;;;;;;8.60;4.90;;;;;;;;;;107173;1251;25341;-86
2023/06/25 09:52:24;;;;;;;8.90;5.40;;;;;;;;;;107218;1274;22526;-89
2023/06/25 09:55:10;;;;;;;10.30;5.20;;;;;;;;;;107208;1274;22541;-82
2023/06/25 09:58:10;;;;;;;7.90;4.70;;;;;;;;;;107196;1274;24258;-88
2023/06/25 10:00:47;;;;;;;11.00;5.30;;;;;;;;;;107216;1257;22648;-85
2023/06/25 10:03:27;;;;;;;9.70;5.40;;;;;;;;;;107268;1274;22637;-84
2023/06/25 10:05:54;;;;;;;10.10;5.80;;;;;;;;;;107221;1274;22486;-86
2023/06/25 10:08:28;;;;;;;11.60;6.60;;;;;;;;;;107048;1254;23880;-87
2023/06/25 10:10:59;;;;;;;11.80;6.20;;;;;;;;;;107192;1257;24378;-85
2023/06/25 10:13:27;;;;;;;10.40;6.10;;;;;;;;;;107177;1274;24222;-84
2023/06/25 10:15:57;;;;;;;9.20;5.60;;;;;;;;;;107161;1274;22503;-89
2023/06/25 10:18:24;;;;;;;10.30;6.00;;;;;;;;;;107224;1274;22552;-83
2023/06/25 10:20:55;;;;;;;10.90;6.00;;;;;;;;;;107139;1272;22525;-86
2023/06/25 10:23:24;;;;;;;10.30;5.50;;;;;;;;;;107244;1274;23898;-87
2023/06/25 10:25:58;;;;;;;10.80;5.30;;;;;;;;;;107009;1274;24323;-84
2023/06/25 10:28:32;;;;;;;10.60;5.40;;;;;;;;;;107160;1274;25281;-86
2023/06/25 10:31:01;;;;;;;10.40;5.60;;;;;;;;;;107244;1254;24340;-86
2023/06/25 10:33:31;;;;;;;10.40;5.00;;;;;;;;;;107196;1274;22710;-89
2023/06/25 10:35:58;;;;;;;10.20;5.70;;;;;;;;;;107211;1274;24255;-86
2023/06/25 10:38:25;;;;;;;11.10;5.30;;;;;;;;;;107192;1274;24343;-83
2023/06/25 10:40:51;;;;;;;9.80;5.40;;;;;;;;;;107204;1251;25313;-86
2023/06/25 10:43:19;;;;;;;9.80;5.30;;;;;;;;;;106956;1274;22664;-86
2023/06/25 10:45:49;;;;;;;8.00;4.90;;;;;;;;;;106984;1274;22522;-84
2023/06/25 10:48:16;;;;;;;9.90;5.30;;;;;;;;;;107220;1274;23904;-83
2023/06/25 10:50:43;;;;;;;11.70;5.40;;;;;;;;;;107214;1274;25491;-91
2023/06/25 10:53:16;;;;;;;8.90;5.20;;;;;;;;;;106982;1257;22550;-83
2023/06/25 10:55:44;;;;;;;9.50;5.00;;;;;;;;;;107186;1274;25898;-85
2023/06/25 10:58:13;;;;;;;8.90;5.40;;;;;;;;;;106970;1274;22545;-88
2023/06/25 11:00:40;;;;;;;9.80;4.90;;;;;;;;;;107194;1274;22520;-85
2023/06/25 11:03:07;;;;;;;8.60;4.80;;;;;;;;;;107001;1257;24081;-80
2023/06/25 11:05:41;;;;;;;8.90;5.00;;;;;;;;;;107170;1274;22523;-83
2023/06/25 11:08:08;;;;;;;9.40;4.90;;;;;;;;;;106972;1274;22518;-82
2023/06/25 11:10:36;;;;;;;9.10;4.20;;;;;;;;;;107137;1274;25337;-84
2023/06/25 11:13:03;;;;;;;8.70;4.70;;;;;;;;;;107185;1254;22527;-82
2023/06/25 11:15:36;;;;;;;10.20;4.60;;;;;;;;;;107251;1274;22524;-91
2023/06/25 11:18:03;;;;;;;7.70;4.20;;;;;;;;;;107016;1270;24403;-88
2023/06/25 11:20:32;;;;;;;10.20;5.00;;;;;;;;;;107185;1274;22502;-87
2023/06/25 11:23:01;;;;;;;8.30;4.40;;;;;;;;;;107190;1274;22531;-82
2023/06/25 11:25:28;;;;;;;8.40;4.30;;;;;;;;;;107205;1274;23253;-82
2023/06/25 11:28:02;;;;;;;8.70;3.80;;;;;;;;;;107184;1274;22593;-85
2023/06/25 11:30:31;;;;;;;8.20;4.30;;;;;;;;;;107190;1274;24683;-87
2023/06/25 11:33:11;;;;;;;7.50;4.10;;;;;;;;;;106993;1254;22547;-84
2023/06/25 11:35:39;;;;;;;7.30;3.70;;;;;;;;;;106950;1274;22653;-86
2023/06/25 11:38:06;;;;;;;7.60;3.80;;;;;;;;;;107119;1274;24354;-84
2023/06/25 11:40:37;;;;;;;8.30;3.80;;;;;;;;;;107014;1274;24190;-92
2023/06/25 11:43:06;;;;;;;6.80;4.00;;;;;;;;;;107115;1257;22572;-89
2023/06/25 11:45:42;;;;;;;9.50;3.80;;;;;;;;;;107142;1274;22993;-91
2023/06/25 11:48:14;;;;;;;6.90;3.90;;;;;;;;;;106958;1269;25223;-82
2023/06/25 11:50:41;;;;;;;8.10;4.50;;;;;;;;;;107177;1274;22603;-86
2023/06/25 11:53:09;;;;;;;8.70;4.10;;;;;;;;;;107273;1254;22520;-84
2023/06/25 11:55:39;;;;;;;7.80;4.30;;;;;;;;;;107195;1271;22524;-83
2023/06/25 11:58:08;;;;;;;7.80;4.30;;;;;;;;;;107037;1269;23883;-83
2023/06/25 12:00:36;;;;;;;7.20;4.40;;;;;;;;;;107246;1267;24218;-82
2023/06/25 12:03:03;;;;;;;8.20;3.80;;;;;;;;;;107272;1257;22653;-87
2023/06/25 12:05:30;;;;;;;7.90;4.40;;;;;;;;;;107052;1269;22534;-87
2023/06/25 12:07:57;;;;;;;7.80;4.70;;;;;;;;;;107035;1267;22520;-83
2023/06/25 12:10:25;;;;;;;8.40;4.80;;;;;;;;;;107216;1272;24273;-84
2023/06/25 12:12:54;;;;;;;8.00;4.40;;;;;;;;;;107211;1257;24202;-87
2023/06/25 12:15:22;;;;;;;7.20;4.30;;;;;;;;;;107252;1269;25594;-88
2023/06/25 12:17:50;;;;;;;8.40;4.70;;;;;;;;;;110679;1268;22415;-82
2023/06/25 12:20:19;;;;;;;9.40;5.10;;;;;;;;;;110454;1274;22842;-82
2023/06/25 12:22:47;;;;;;;8.70;4.90;;;;;;;;;;110435;1250;22385;-82
2023/06/25 12:25:13;;;;;;;9.20;4.50;;;;;;;;;;110493;1274;22135;-83
2023/06/25 12:27:40;;;;;;;9.00;3.90;;;;;;;;;;110612;1274;23105;-85
2023/06/25 12:30:07;;;;;;;7.60;4.30;;;;;;;;;;110589;1274;22097;-84
2023/06/25 12:32:34;;;;;;;7.50;4.10;;;;;;;;;;110566;1274;22006;-82
2023/06/25 12:35:01;;;;;;;7.80;4.10;;;;;;;;;;110594;1256;22214;-81
2023/06/25 12:37:28;;;;;;;10.10;4.60;;;;;;;;;;110582;1266;22874;-82
2023/06/25 12:39:55;;;;;;;9.40;4.50;;;;;;;;;;110639;1274;22817;-81
2023/06/25 12:42:22;;;;;;;7.30;3.80;;;;;;;;;;110658;1274;23120;-82
2023/06/25 12:44:51;;;;;;;7.40;4.10;;;;;;;;;;110635;1256;22799;-81
2023/06/25 12:47:18;;;;;;;7.90;4.40;;;;;;;;;;110604;1274;22173;-82
2023/06/25 12:49:45;;;;;;;6.80;4.10;;;;;;;;;;110620;1270;21990;-81
2023/06/25 12:52:12;;;;;;;7.70;4.00;;;;;;;;;;110635;1274;22817;-81
2023/06/25 12:54:39;;;;;;;7.50;3.80;;;;;;;;;;110781;1256;22103;-82
2023/06/25 12:57:06;;;;;;;10.50;3.90;;;;;;;;;;110615;1274;22114;-84
2023/06/25 12:59:33;;;;;;;8.30;4.00;;;;;;;;;;110620;1274;22125;-81
2023/06/25 13:02:00;;;;;;;7.50;3.90;;;;;;;;;;110672;1275;22321;-82
2023/06/25 13:04:27;;;;;;;6.90;3.70;;;;;;;;;;110678;1256;22310;-82
2023/06/25 13:06:54;;;;;;;7.30;3.50;;;;;;;;;;110645;1274;22854;-81
2023/06/25 13:09:20;;;;;;;9.00;4.80;;;;;;;;;;110635;1260;22159;-81
2023/06/25 13:11:47;;;;;;;14.80;9.10;;;;;;;;;;110653;1274;22183;-84
2023/06/25 13:14:14;;;;;;;9.40;5.00;;;;;;;;;;110681;1253;21983;-81
2023/06/25 13:16:41;;;;;;;8.50;4.20;;;;;;;;;;110622;1274;21967;-80
2023/06/25 13:19:08;;;;;;;7.90;4.00;;;;;;;;;;110606;1274;22743;-81
2023/06/25 13:21:35;;;;;;;9.00;4.40;;;;;;;;;;110480;1273;22140;-81
2023/06/25 13:24:02;;;;;;;7.50;3.90;;;;;;;;;;110647;1251;22390;-80
2023/06/25 13:26:29;;;;;;;7.80;4.00;;;;;;;;;;110488;1275;22078;-81
2023/06/25 13:28:56;;;;;;;9.00;4.40;;;;;;;;;;110623;1275;22129;-81
2023/06/25 13:31:22;;;;;;;8.10;3.90;;;;;;;;;;110489;1273;22318;-80
2023/06/25 13:33:50;;;;;;;7.70;4.00;;;;;;;;;;110615;1274;22240;-82
2023/06/25 13:36:17;;;;;;;8.50;4.30;;;;;;;;;;111059;1255;22321;-81
2023/06/25 13:38:44;;;;;;;7.50;4.20;;;;;;;;;;110602;1274;22118;-83
2023/06/25 13:41:12;;;;;;;7.80;4.20;;;;;;;;;;110647;1274;22503;-82
2023/06/25 13:43:39;;;;;;;8.70;4.40;;;;;;;;;;110605;1275;22120;-82
2023/06/25 13:46:06;;;;;;;7.90;4.00;;;;;;;;;;110583;1256;21964;-82
2023/06/25 13:48:33;;;;;;;8.10;3.80;;;;;;;;;;110477;1275;22269;-82
2023/06/25 13:51:00;;;;;;;8.10;4.20;;;;;;;;;;110589;1275;22205;-81
2023/06/25 13:53:27;;;;;;;7.90;3.80;;;;;;;;;;110581;1275;22129;-81
2023/06/25 13:55:56;;;;;;;7.20;3.60;;;;;;;;;;110646;1259;22127;-84
2023/06/25 13:58:29;;;;;;;7.80;4.60;;;;;;;;;;110602;1275;22307;-81
2023/06/25 14:00:56;;;;;;;8.00;4.20;;;;;;;;;;110630;1275;22760;-81
2023/06/25 14:03:23;;;;;;;9.00;4.40;;;;;;;;;;110638;1275;22096;-81
2023/06/25 14:05:53;;;;;;;8.20;4.10;;;;;;;;;;108477;1257;3069656;-81
2023/06/25 14:08:20;;;;;;;9.10;4.20;;;;;;;;;;110598;1275;22000;-80
2023/06/25 14:10:47;;;;;;;7.60;4.20;;;;;;;;;;110438;1275;22028;-79
2023/06/25 14:13:14;;;;;;;8.50;4.10;;;;;;;;;;110595;1275;23047;-81
2023/06/25 14:15:41;;;;;;;8.60;4.10;;;;;;;;;;110594;1256;22094;-80
2023/06/25 14:18:08;;;;;;;7.40;4.20;;;;;;;;;;110434;1275;22101;-80
2023/06/25 14:20:35;;;;;;;7.60;3.80;;;;;;;;;;110548;1268;22829;-81
2023/06/25 14:23:02;;;;;;;8.20;4.00;;;;;;;;;;110531;1275;22611;-81
2023/06/25 14:25:29;;;;;;;7.00;3.80;;;;;;;;;;110596;1254;22213;-79
2023/06/25 14:27:56;;;;;;;9.00;4.40;;;;;;;;;;110562;1275;22987;-80
2023/06/25 14:30:26;;;;;;;9.30;5.20;;;;;;;;;;110355;1275;21965;-80
2023/06/25 14:32:56;;;;;;;11.20;6.10;;;;;;;;;;110532;1275;22177;-80
2023/06/25 14:35:25;;;;;;;10.60;5.60;;;;;;;;;;110570;1253;23188;-80
2023/06/25 14:37:55;;;;;;;10.40;4.80;;;;;;;;;;110590;1275;22115;-81
2023/06/25 14:40:21;;;;;;;7.70;4.30;;;;;;;;;;110594;1275;22142;-80
2023/06/25 14:42:49;;;;;;;10.80;5.50;;;;;;;;;;110589;1275;22853;-80
2023/06/25 14:45:15;;;;;;;8.50;4.40;;;;;;;;;;110489;1275;22801;-81
2023/06/25 14:47:42;;;;;;;8.30;4.80;;;;;;;;;;110616;1261;22149;-80
2023/06/25 14:50:09;;;;;;;9.50;4.80;;;;;;;;;;110597;1275;22745;-80
2023/06/25 14:52:36;;;;;;;8.10;4.30;;;;;;;;;;110593;1275;22071;-80